sensor_id;sensor_type;location;lat;lon;timestamp;temperature;humidity
63976;DHT22;50167;47.958;21.780;2023-05-20T00:00:13;19.46;60.34
63976;DHT22;50167;47.958;21.780;2023-05-20T00:02:39;19.67;59.69
63976;DHT22;50167;47.958;21.780;2023-05-20T00:05:07;19.34;58.46
63976;DHT22;50167;47.958;21.780;2023-05-20T00:07:33;18.39;59.81
63976;DHT22;50167;47.958;21.780;2023-05-20T00:09:59;17.57;61.92
63976;DHT22;50167;47.958;21.780;2023-05-20T00:12:25;16.91;64.13
63976;DHT22;50167;47.958;21.780;2023-05-20T00:14:52;17.29;65.87
63976;DHT22;50167;47.958;21.780;2023-05-20T00:17:18;18.25;64.41
63976;DHT22;50167;47.958;21.780;2023-05-20T00:19:44;18.81;62.28
63976;DHT22;50167;47.958;21.780;2023-05-20T00:22:11;19.12;61.15
63976;DHT22;50167;47.958;21.780;2023-05-20T00:24:37;19.32;60.62
63976;DHT22;50167;47.958;21.780;2023-05-20T00:27:16;19.46;59.80
63976;DHT22;50167;47.958;21.780;2023-05-20T00:29:42;18.94;58.64
63976;DHT22;50167;47.958;21.780;2023-05-20T00:32:08;17.97;60.61
63976;DHT22;50167;47.958;21.780;2023-05-20T00:34:34;17.12;62.36
63976;DHT22;50167;47.958;21.780;2023-05-20T00:37:00;17.22;64.97
63976;DHT22;50167;47.958;21.780;2023-05-20T00:39:27;17.91;64.36
63976;DHT22;50167;47.958;21.780;2023-05-20T00:41:55;18.32;62.82
63976;DHT22;50167;47.958;21.780;2023-05-20T00:44:23;18.59;62.05
63976;DHT22;50167;47.958;21.780;2023-05-20T00:46:52;18.79;61.48
63976;DHT22;50167;47.958;21.780;2023-05-20T00:49:19;18.79;60.69
63976;DHT22;50167;47.958;21.780;2023-05-20T00:51:46;18.86;60.85
63976;DHT22;50167;47.958;21.780;2023-05-20T00:54:12;19.14;60.30
63976;DHT22;50167;47.958;21.780;2023-05-20T00:56:39;19.31;59.19
63976;DHT22;50167;47.958;21.780;2023-05-20T00:59:06;18.84;58.31
63976;DHT22;50167;47.958;21.780;2023-05-20T01:01:33;17.77;60.99
63976;DHT22;50167;47.958;21.780;2023-05-20T01:03:59;16.91;62.80
63976;DHT22;50167;47.958;21.780;2023-05-20T01:06:26;16.92;65.09
63976;DHT22;50167;47.958;21.780;2023-05-20T01:08:53;17.50;63.02
63976;DHT22;50167;47.958;21.780;2023-05-20T01:11:32;17.77;63.26
63976;DHT22;50167;47.958;21.780;2023-05-20T01:13:57;18.23;62.64
63976;DHT22;50167;47.958;21.780;2023-05-20T01:16:25;18.58;61.27
63976;DHT22;50167;47.958;21.780;2023-05-20T01:18:54;18.79;60.44
63976;DHT22;50167;47.958;21.780;2023-05-20T01:21:20;18.88;60.18
63976;DHT22;50167;47.958;21.780;2023-05-20T01:23:47;19.08;58.95
63976;DHT22;50167;47.958;21.780;2023-05-20T01:26:13;18.64;58.44
63976;DHT22;50167;47.958;21.780;2023-05-20T01:28:41;17.63;60.41
63976;DHT22;50167;47.958;21.780;2023-05-20T01:31:21;16.68;62.40
63976;DHT22;50167;47.958;21.780;2023-05-20T01:33:45;16.77;64.20
63976;DHT22;50167;47.958;21.780;2023-05-20T01:36:13;17.49;63.27
63976;DHT22;50167;47.958;21.780;2023-05-20T01:38:41;17.98;63.23
63976;DHT22;50167;47.958;21.780;2023-05-20T01:41:08;18.37;61.35
63976;DHT22;50167;47.958;21.780;2023-05-20T01:43:35;18.55;59.82
63976;DHT22;50167;47.958;21.780;2023-05-20T01:46:05;18.69;59.74
63976;DHT22;50167;47.958;21.780;2023-05-20T01:48:31;18.29;59.48
63976;DHT22;50167;47.958;21.780;2023-05-20T01:50:58;17.29;60.92
63976;DHT22;50167;47.958;21.780;2023-05-20T01:53:24;16.47;62.73
63976;DHT22;50167;47.958;21.780;2023-05-20T01:55:50;16.64;64.90
63976;DHT22;50167;47.958;21.780;2023-05-20T01:58:17;17.56;64.22
63976;DHT22;50167;47.958;21.780;2023-05-20T02:00:43;18.09;62.65
63976;DHT22;50167;47.958;21.780;2023-05-20T02:03:09;18.37;61.37
63976;DHT22;50167;47.958;21.780;2023-05-20T02:05:35;18.63;60.58
63976;DHT22;50167;47.958;21.780;2023-05-20T02:08:01;18.79;59.60
63976;DHT22;50167;47.958;21.780;2023-05-20T02:10:27;18.32;58.99
63976;DHT22;50167;47.958;21.780;2023-05-20T02:12:54;17.25;60.55
63976;DHT22;50167;47.958;21.780;2023-05-20T02:15:20;16.35;63.02
63976;DHT22;50167;47.958;21.780;2023-05-20T02:17:46;16.41;64.38
63976;DHT22;50167;47.958;21.780;2023-05-20T02:20:12;17.26;64.64
63976;DHT22;50167;47.958;21.780;2023-05-20T02:22:38;17.84;62.63
63976;DHT22;50167;47.958;21.780;2023-05-20T02:25:06;18.11;61.50
63976;DHT22;50167;47.958;21.780;2023-05-20T02:27:33;18.36;60.92
63976;DHT22;50167;47.958;21.780;2023-05-20T02:29:59;18.55;60.06
63976;DHT22;50167;47.958;21.780;2023-05-20T02:32:26;18.64;59.30
63976;DHT22;50167;47.958;21.780;2023-05-20T02:34:54;18.14;58.90
63976;DHT22;50167;47.958;21.780;2023-05-20T02:37:20;17.11;60.50
63976;DHT22;50167;47.958;21.780;2023-05-20T02:39:46;16.25;62.14
63976;DHT22;50167;47.958;21.780;2023-05-20T02:42:13;16.33;65.39
63976;DHT22;50167;47.958;21.780;2023-05-20T02:44:39;17.22;64.88
63976;DHT22;50167;47.958;21.780;2023-05-20T02:47:05;17.81;62.83
63976;DHT22;50167;47.958;21.780;2023-05-20T02:49:32;18.15;61.90
63976;DHT22;50167;47.958;21.780;2023-05-20T02:51:58;18.35;61.12
63976;DHT22;50167;47.958;21.780;2023-05-20T02:54:24;18.53;59.81
63976;DHT22;50167;47.958;21.780;2023-05-20T02:56:51;18.66;59.71
63976;DHT22;50167;47.958;21.780;2023-05-20T02:59:27;18.79;59.18
63976;DHT22;50167;47.958;21.780;2023-05-20T03:01:54;18.16;57.81
63976;DHT22;50167;47.958;21.780;2023-05-20T03:04:20;17.09;59.97
63976;DHT22;50167;47.958;21.780;2023-05-20T03:06:46;16.20;63.07
63976;DHT22;50167;47.958;21.780;2023-05-20T03:09:12;16.12;64.82
63976;DHT22;50167;47.958;21.780;2023-05-20T03:11:39;16.71;64.42
63976;DHT22;50167;47.958;21.780;2023-05-20T03:14:05;17.07;63.92
63976;DHT22;50167;47.958;21.780;2023-05-20T03:16:31;17.30;63.12
63976;DHT22;50167;47.958;21.780;2023-05-20T03:19:00;17.42;62.75
63976;DHT22;50167;47.958;21.780;2023-05-20T03:21:26;17.49;62.44
63976;DHT22;50167;47.958;21.780;2023-05-20T03:23:52;17.57;61.91
63976;DHT22;50167;47.958;21.780;2023-05-20T03:26:19;17.67;62.18
63976;DHT22;50167;47.958;21.780;2023-05-20T03:28:46;18.05;61.88
63976;DHT22;50167;47.958;21.780;2023-05-20T03:31:13;18.21;61.01
63976;DHT22;50167;47.958;21.780;2023-05-20T03:33:39;18.35;60.39
63976;DHT22;50167;47.958;21.780;2023-05-20T03:36:05;18.48;60.12
63976;DHT22;50167;47.958;21.780;2023-05-20T03:38:32;18.50;59.45
63976;DHT22;50167;47.958;21.780;2023-05-20T03:40:58;18.01;59.14
63976;DHT22;50167;47.958;21.780;2023-05-20T03:43:25;17.08;60.82
63976;DHT22;50167;47.958;21.780;2023-05-20T03:45:52;16.26;63.87
63976;DHT22;50167;47.958;21.780;2023-05-20T03:48:18;16.33;65.57
63976;DHT22;50167;47.958;21.780;2023-05-20T03:50:45;17.15;65.20
63976;DHT22;50167;47.958;21.780;2023-05-20T03:53:11;17.58;63.31
63976;DHT22;50167;47.958;21.780;2023-05-20T03:55:38;17.77;62.49
63976;DHT22;50167;47.958;21.780;2023-05-20T03:58:06;17.98;61.64
63976;DHT22;50167;47.958;21.780;2023-05-20T04:00:34;18.18;61.08
63976;DHT22;50167;47.958;21.780;2023-05-20T04:03:02;18.28;60.81
63976;DHT22;50167;47.958;21.780;2023-05-20T04:05:29;18.33;60.70
63976;DHT22;50167;47.958;21.780;2023-05-20T04:07:55;18.43;60.84
63976;DHT22;50167;47.958;21.780;2023-05-20T04:10:22;18.53;60.02
63976;DHT22;50167;47.958;21.780;2023-05-20T04:12:48;18.87;60.47
63976;DHT22;50167;47.958;21.780;2023-05-20T04:15:15;19.22;59.12
63976;DHT22;50167;47.958;21.780;2023-05-20T04:17:41;18.87;58.25
63976;DHT22;50167;47.958;21.780;2023-05-20T04:20:09;17.88;60.44
63976;DHT22;50167;47.958;21.780;2023-05-20T04:22:36;17.11;62.42
63976;DHT22;50167;47.958;21.780;2023-05-20T04:25:04;17.12;64.12
63976;DHT22;50167;47.958;21.780;2023-05-20T04:27:31;17.95;63.67
63976;DHT22;50167;47.958;21.780;2023-05-20T04:30:04;18.73;61.37
63976;DHT22;50167;47.958;21.780;2023-05-20T04:32:32;19.24;60.00
63976;DHT22;50167;47.958;21.780;2023-05-20T04:35:02;19.55;59.41
63976;DHT22;50167;47.958;21.780;2023-05-20T04:37:30;19.24;58.54
63976;DHT22;50167;47.958;21.780;2023-05-20T04:39:56;18.32;60.03
63976;DHT22;50167;47.958;21.780;2023-05-20T04:42:23;17.64;61.94
63976;DHT22;50167;47.958;21.780;2023-05-20T04:44:49;17.12;63.46
63976;DHT22;50167;47.958;21.780;2023-05-20T04:47:15;17.39;64.94
63976;DHT22;50167;47.958;21.780;2023-05-20T04:49:42;18.32;63.83
63976;DHT22;50167;47.958;21.780;2023-05-20T04:52:08;19.17;61.41
63976;DHT22;50167;47.958;21.780;2023-05-20T04:54:34;19.66;59.68
63976;DHT22;50167;47.958;21.780;2023-05-20T04:57:00;19.45;58.68
63976;DHT22;50167;47.958;21.780;2023-05-20T04:59:27;18.60;61.15
63976;DHT22;50167;47.958;21.780;2023-05-20T05:01:54;17.87;63.02
63976;DHT22;50167;47.958;21.780;2023-05-20T05:04:20;18.28;63.40
63976;DHT22;50167;47.958;21.780;2023-05-20T05:06:49;19.31;61.20
63976;DHT22;50167;47.958;21.780;2023-05-20T05:09:15;20.11;59.90
63976;DHT22;50167;47.958;21.780;2023-05-20T05:11:41;20.13;58.03
63976;DHT22;50167;47.958;21.780;2023-05-20T05:14:07;19.35;59.16
63976;DHT22;50167;47.958;21.780;2023-05-20T05:16:34;18.66;61.37
63976;DHT22;50167;47.958;21.780;2023-05-20T05:19:00;18.19;63.77
63976;DHT22;50167;47.958;21.780;2023-05-20T05:21:26;18.79;63.34
63976;DHT22;50167;47.958;21.780;2023-05-20T05:23:52;19.84;60.93
63976;DHT22;50167;47.958;21.780;2023-05-20T05:26:18;20.56;58.58
63976;DHT22;50167;47.958;21.780;2023-05-20T05:29:00;20.45;57.54
63976;DHT22;50167;47.958;21.780;2023-05-20T05:31:27;19.66;59.42
63976;DHT22;50167;47.958;21.780;2023-05-20T05:33:53;19.09;61.68
63976;DHT22;50167;47.958;21.780;2023-05-20T05:36:25;18.76;62.32
63976;DHT22;50167;47.958;21.780;2023-05-20T05:38:51;19.36;63.07
63976;DHT22;50167;47.958;21.780;2023-05-20T05:41:19;20.55;60.12
63976;DHT22;50167;47.958;21.780;2023-05-20T05:43:46;21.40;57.86
63976;DHT22;50167;47.958;21.780;2023-05-20T05:46:12;21.36;56.50
63976;DHT22;50167;47.958;21.780;2023-05-20T05:48:39;20.64;58.51
63976;DHT22;50167;47.958;21.780;2023-05-20T05:51:07;20.07;59.80
63976;DHT22;50167;47.958;21.780;2023-05-20T05:53:33;19.69;60.22
63976;DHT22;50167;47.958;21.780;2023-05-20T05:55:59;19.41;61.35
63976;DHT22;50167;47.958;21.780;2023-05-20T05:58:25;19.24;62.20
63976;DHT22;50167;47.958;21.780;2023-05-20T06:00:52;19.41;63.60
63976;DHT22;50167;47.958;21.780;2023-05-20T06:03:20;20.66;60.71
63976;DHT22;50167;47.958;21.780;2023-05-20T06:05:46;21.75;57.73
63976;DHT22;50167;47.958;21.780;2023-05-20T06:08:12;21.80;56.75
63976;DHT22;50167;47.958;21.780;2023-05-20T06:10:38;21.15;58.05
63976;DHT22;50167;47.958;21.780;2023-05-20T06:13:05;20.75;59.64
63976;DHT22;50167;47.958;21.780;2023-05-20T06:15:31;20.49;60.54
63976;DHT22;50167;47.958;21.780;2023-05-20T06:17:57;20.24;61.06
63976;DHT22;50167;47.958;21.780;2023-05-20T06:20:23;20.04;61.52
63976;DHT22;50167;47.958;21.780;2023-05-20T06:22:49;19.90;62.35
63976;DHT22;50167;47.958;21.780;2023-05-20T06:25:15;19.84;62.02
63976;DHT22;50167;47.958;21.780;2023-05-20T06:27:42;20.29;62.33
63976;DHT22;50167;47.958;21.780;2023-05-20T06:30:09;21.49;59.83
63976;DHT22;50167;47.958;21.780;2023-05-20T06:32:35;22.50;57.43
63976;DHT22;50167;47.958;21.780;2023-05-20T06:35:02;22.55;55.98
63976;DHT22;50167;47.958;21.780;2023-05-20T06:37:28;22.10;56.20
63976;DHT22;50167;47.958;21.780;2023-05-20T06:39:54;21.72;57.96
63976;DHT22;50167;47.958;21.780;2023-05-20T06:42:21;21.47;58.38
63976;DHT22;50167;47.958;21.780;2023-05-20T06:44:47;21.31;58.52
63976;DHT22;50167;47.958;21.780;2023-05-20T06:47:15;21.28;59.35
63976;DHT22;50167;47.958;21.780;2023-05-20T06:49:45;21.27;59.98
63976;DHT22;50167;47.958;21.780;2023-05-20T06:52:11;21.30;60.42
63976;DHT22;50167;47.958;21.780;2023-05-20T06:54:38;21.33;60.13
63976;DHT22;50167;47.958;21.780;2023-05-20T06:57:07;21.36;60.23
63976;DHT22;50167;47.958;21.780;2023-05-20T06:59:35;21.33;59.79
63976;DHT22;50167;47.958;21.780;2023-05-20T07:02:02;21.36;60.20
63976;DHT22;50167;47.958;21.780;2023-05-20T07:04:29;21.40;60.31
63976;DHT22;50167;47.958;21.780;2023-05-20T07:06:55;21.47;60.38
63976;DHT22;50167;47.958;21.780;2023-05-20T07:09:21;21.58;60.42
63976;DHT22;50167;47.958;21.780;2023-05-20T07:11:47;21.69;59.69
63976;DHT22;50167;47.958;21.780;2023-05-20T07:14:15;21.80;60.04
63976;DHT22;50167;47.958;21.780;2023-05-20T07:16:41;21.91;59.63
63976;DHT22;50167;47.958;21.780;2023-05-20T07:19:07;21.99;59.59
63976;DHT22;50167;47.958;21.780;2023-05-20T07:21:33;22.07;59.90
63976;DHT22;50167;47.958;21.780;2023-05-20T07:23:59;22.19;59.89
63976;DHT22;50167;47.958;21.780;2023-05-20T07:26:25;22.30;59.83
63976;DHT22;50167;47.958;21.780;2023-05-20T07:28:58;22.41;59.06
63976;DHT22;50167;47.958;21.780;2023-05-20T07:31:24;22.50;59.87
63976;DHT22;50167;47.958;21.780;2023-05-20T07:33:51;22.60;58.72
63976;DHT22;50167;47.958;21.780;2023-05-20T07:36:19;22.70;58.82
63976;DHT22;50167;47.958;21.780;2023-05-20T07:38:45;22.76;58.23
63976;DHT22;50167;47.958;21.780;2023-05-20T07:41:12;22.85;57.81
63976;DHT22;50167;47.958;21.780;2023-05-20T07:43:38;22.96;57.21
63976;DHT22;50167;47.958;21.780;2023-05-20T07:46:05;23.06;56.70
63976;DHT22;50167;47.958;21.780;2023-05-20T07:48:31;23.18;57.13
63976;DHT22;50167;47.958;21.780;2023-05-20T07:50:57;23.36;55.74
63976;DHT22;50167;47.958;21.780;2023-05-20T07:53:25;23.47;55.03
63976;DHT22;50167;47.958;21.780;2023-05-20T07:55:51;23.57;55.94
63976;DHT22;50167;47.958;21.780;2023-05-20T07:58:18;23.60;54.56
63976;DHT22;50167;47.958;21.780;2023-05-20T08:00:44;23.69;55.38
63976;DHT22;50167;47.958;21.780;2023-05-20T08:03:10;23.78;55.04
63976;DHT22;50167;47.958;21.780;2023-05-20T08:05:37;23.91;55.39
63976;DHT22;50167;47.958;21.780;2023-05-20T08:08:04;24.05;54.20
63976;DHT22;50167;47.958;21.780;2023-05-20T08:10:30;24.20;54.29
63976;DHT22;50167;47.958;21.780;2023-05-20T08:12:56;24.33;53.25
63976;DHT22;50167;47.958;21.780;2023-05-20T08:15:22;24.50;51.89
63976;DHT22;50167;47.958;21.780;2023-05-20T08:17:49;24.64;51.75
63976;DHT22;50167;47.958;21.780;2023-05-20T08:20:15;24.78;50.51
63976;DHT22;50167;47.958;21.780;2023-05-20T08:22:41;24.91;52.46
63976;DHT22;50167;47.958;21.780;2023-05-20T08:25:08;25.05;51.20
63976;DHT22;50167;47.958;21.780;2023-05-20T08:27:35;25.18;51.98
63976;DHT22;50167;47.958;21.780;2023-05-20T08:30:04;25.32;51.80
63976;DHT22;50167;47.958;21.780;2023-05-20T08:32:31;25.42;50.27
63976;DHT22;50167;47.958;21.780;2023-05-20T08:34:58;25.42;49.79
63976;DHT22;50167;47.958;21.780;2023-05-20T08:37:26;25.50;50.05
63976;DHT22;50167;47.958;21.780;2023-05-20T08:39:53;25.55;49.98
63976;DHT22;50167;47.958;21.780;2023-05-20T08:42:23;25.57;50.28
63976;DHT22;50167;47.958;21.780;2023-05-20T08:44:51;25.55;50.74
63976;DHT22;50167;47.958;21.780;2023-05-20T08:47:19;25.66;49.19
63976;DHT22;50167;47.958;21.780;2023-05-20T08:49:48;25.75;50.91
63976;DHT22;50167;47.958;21.780;2023-05-20T08:52:17;25.86;48.26
63976;DHT22;50167;47.958;21.780;2023-05-20T08:54:48;26.00;50.26
63976;DHT22;50167;47.958;21.780;2023-05-20T08:57:15;26.05;49.29
63976;DHT22;50167;47.958;21.780;2023-05-20T08:59:49;26.11;49.08
63976;DHT22;50167;47.958;21.780;2023-05-20T09:02:16;26.14;50.02
63976;DHT22;50167;47.958;21.780;2023-05-20T09:04:42;26.21;48.96
63976;DHT22;50167;47.958;21.780;2023-05-20T09:07:08;26.27;48.38
63976;DHT22;50167;47.958;21.780;2023-05-20T09:09:34;26.30;48.01
63976;DHT22;50167;47.958;21.780;2023-05-20T09:12:02;26.35;48.23
63976;DHT22;50167;47.958;21.780;2023-05-20T09:14:30;26.48;46.52
63976;DHT22;50167;47.958;21.780;2023-05-20T09:17:00;26.66;46.48
63976;DHT22;50167;47.958;21.780;2023-05-20T09:19:27;26.85;46.49
63976;DHT22;50167;47.958;21.780;2023-05-20T09:21:53;26.93;45.69
63976;DHT22;50167;47.958;21.780;2023-05-20T09:24:24;27.07;47.42
63976;DHT22;50167;47.958;21.780;2023-05-20T09:26:51;27.20;45.89
63976;DHT22;50167;47.958;21.780;2023-05-20T09:29:17;27.30;43.54
63976;DHT22;50167;47.958;21.780;2023-05-20T09:31:46;27.38;43.73
63976;DHT22;50167;47.958;21.780;2023-05-20T09:34:12;27.40;42.16
63976;DHT22;50167;47.958;21.780;2023-05-20T09:36:39;27.31;41.63
63976;DHT22;50167;47.958;21.780;2023-05-20T09:42:49;27.52;41.77
63976;DHT22;50167;47.958;21.780;2023-05-20T09:48:53;27.75;44.42
63976;DHT22;50167;47.958;21.780;2023-05-20T09:51:22;27.87;42.83
63976;DHT22;50167;47.958;21.780;2023-05-20T09:53:49;27.97;43.27
63976;DHT22;50167;47.958;21.780;2023-05-20T09:56:19;28.13;41.71
63976;DHT22;50167;47.958;21.780;2023-05-20T09:58:52;28.16;42.79
63976;DHT22;50167;47.958;21.780;2023-05-20T10:01:21;28.30;40.07
63976;DHT22;50167;47.958;21.780;2023-05-20T10:03:51;28.40;40.25
63976;DHT22;50167;47.958;21.780;2023-05-20T10:06:27;28.52;39.43
63976;DHT22;50167;47.958;21.780;2023-05-20T10:21:17;29.00;39.06
63976;DHT22;50167;47.958;21.780;2023-05-20T10:27:45;29.26;38.50
63976;DHT22;50167;47.958;21.780;2023-05-20T10:30:16;29.38;37.58
63976;DHT22;50167;47.958;21.780;2023-05-20T10:32:54;29.22;38.10
63976;DHT22;50167;47.958;21.780;2023-05-20T10:35:23;28.82;38.81
63976;DHT22;50167;47.958;21.780;2023-05-20T10:38:05;28.35;39.37
63976;DHT22;50167;47.958;21.780;2023-05-20T10:40:24;27.97;39.61
63976;DHT22;50167;47.958;21.780;2023-05-20T10:42:52;27.76;41.16
63976;DHT22;50167;47.958;21.780;2023-05-20T10:45:27;27.76;39.50
63976;DHT22;50167;47.958;21.780;2023-05-20T10:47:57;27.97;38.53
63976;DHT22;50167;47.958;21.780;2023-05-20T10:50:36;28.14;37.44
63976;DHT22;50167;47.958;21.780;2023-05-20T10:53:06;28.37;38.07
63976;DHT22;50167;47.958;21.780;2023-05-20T10:55:45;28.58;38.12
63976;DHT22;50167;47.958;21.780;2023-05-20T11:02:02;29.29;36.96
63976;DHT22;50167;47.958;21.780;2023-05-20T11:04:34;29.57;35.41
63976;DHT22;50167;47.958;21.780;2023-05-20T11:07:04;29.81;35.38
63976;DHT22;50167;47.958;21.780;2023-05-20T11:09:48;30.08;35.97
63976;DHT22;50167;47.958;21.780;2023-05-20T11:12:15;30.29;36.59
63976;DHT22;50167;47.958;21.780;2023-05-20T11:19:23;30.30;33.33
63976;DHT22;50167;47.958;21.780;2023-05-20T11:21:43;30.29;33.98
63976;DHT22;50167;47.958;21.780;2023-05-20T11:24:26;30.20;34.74
63976;DHT22;50167;47.958;21.780;2023-05-20T11:26:56;30.08;34.83
63976;DHT22;50167;47.958;21.780;2023-05-20T11:29:32;30.11;35.44
63976;DHT22;50167;47.958;21.780;2023-05-20T11:36:08;30.15;35.15
63976;DHT22;50167;47.958;21.780;2023-05-20T11:38:44;30.20;33.78
63976;DHT22;50167;47.958;21.780;2023-05-20T11:41:11;30.29;35.39
63976;DHT22;50167;47.958;21.780;2023-05-20T11:43:37;30.37;31.81
63976;DHT22;50167;47.958;21.780;2023-05-20T11:46:09;30.32;33.16
63976;DHT22;50167;47.958;21.780;2023-05-20T11:48:39;30.34;33.27
63976;DHT22;50167;47.958;21.780;2023-05-20T11:51:14;30.36;33.44
63976;DHT22;50167;47.958;21.780;2023-05-20T11:53:40;30.34;32.47
63976;DHT22;50167;47.958;21.780;2023-05-20T11:56:09;30.27;32.00
63976;DHT22;50167;47.958;21.780;2023-05-20T11:58:37;30.26;33.49
63976;DHT22;50167;47.958;21.780;2023-05-20T12:01:30;30.32;33.29
63976;DHT22;50167;47.958;21.780;2023-05-20T12:03:53;30.40;32.45
63976;DHT22;50167;47.958;21.780;2023-05-20T12:06:38;30.43;33.55
63976;DHT22;50167;47.958;21.780;2023-05-20T12:09:01;30.46;34.62
63976;DHT22;50167;47.958;21.780;2023-05-20T12:11:38;30.53;33.45
63976;DHT22;50167;47.958;21.780;2023-05-20T12:14:12;30.54;33.13
63976;DHT22;50167;47.958;21.780;2023-05-20T12:16:40;30.56;34.12
63976;DHT22;50167;47.958;21.780;2023-05-20T12:19:10;30.61;33.04
63976;DHT22;50167;47.958;21.780;2023-05-20T12:21:36;30.70;33.98
63976;DHT22;50167;47.958;21.780;2023-05-20T12:24:04;30.80;34.90
63976;DHT22;50167;47.958;21.780;2023-05-20T12:26:37;30.91;34.17
63976;DHT22;50167;47.958;21.780;2023-05-20T12:29:06;30.91;33.94
63976;DHT22;50167;47.958;21.780;2023-05-20T12:35:39;30.92;33.29
63976;DHT22;50167;47.958;21.780;2023-05-20T12:38:10;31.14;33.02
63976;DHT22;50167;47.958;21.780;2023-05-20T12:40:38;31.40;31.55
63976;DHT22;50167;47.958;21.780;2023-05-20T12:46:01;32.08;31.24
63976;DHT22;50167;47.958;21.780;2023-05-20T12:48:30;32.35;31.38
63976;DHT22;50167;47.958;21.780;2023-05-20T12:58:14;34.74;29.01
63976;DHT22;50167;47.958;21.780;2023-05-20T13:00:49;35.46;27.07
63976;DHT22;50167;47.958;21.780;2023-05-20T13:03:21;35.93;26.33
63976;DHT22;50167;47.958;21.780;2023-05-20T13:05:51;35.81;26.70
63976;DHT22;50167;47.958;21.780;2023-05-20T13:08:20;35.84;26.58
63976;DHT22;50167;47.958;21.780;2023-05-20T13:10:47;35.45;27.80
63976;DHT22;50167;47.958;21.780;2023-05-20T13:13:14;34.90;27.80
63976;DHT22;50167;47.958;21.780;2023-05-20T13:15:50;34.16;29.12
63976;DHT22;50167;47.958;21.780;2023-05-20T13:18:18;33.78;29.54
63976;DHT22;50167;47.958;21.780;2023-05-20T13:20:45;34.06;30.10
63976;DHT22;50167;47.958;21.780;2023-05-20T13:23:11;34.47;29.61
63976;DHT22;50167;47.958;21.780;2023-05-20T13:25:39;35.21;29.09
63976;DHT22;50167;47.958;21.780;2023-05-20T13:28:09;36.06;28.25
63976;DHT22;50167;47.958;21.780;2023-05-20T13:30:42;36.73;27.24
63976;DHT22;50167;47.958;21.780;2023-05-20T13:33:14;37.20;26.52
63976;DHT22;50167;47.958;21.780;2023-05-20T13:35:42;37.29;26.36
63976;DHT22;50167;47.958;21.780;2023-05-20T13:38:10;36.93;26.45
63976;DHT22;50167;47.958;21.780;2023-05-20T13:40:40;36.69;26.65
63976;DHT22;50167;47.958;21.780;2023-05-20T13:43:09;36.55;25.95
63976;DHT22;50167;47.958;21.780;2023-05-20T13:45:45;36.23;26.50
63976;DHT22;50167;47.958;21.780;2023-05-20T13:48:19;36.62;26.64
63976;DHT22;50167;47.958;21.780;2023-05-20T13:51:00;37.09;25.28
63976;DHT22;50167;47.958;21.780;2023-05-20T13:53:30;37.56;25.75
63976;DHT22;50167;47.958;21.780;2023-05-20T13:56:08;37.92;24.49
63976;DHT22;50167;47.958;21.780;2023-05-20T13:58:32;38.27;25.82
63976;DHT22;50167;47.958;21.780;2023-05-20T14:01:04;38.81;23.74
63976;DHT22;50167;47.958;21.780;2023-05-20T14:03:31;39.24;23.32
63976;DHT22;50167;47.958;21.780;2023-05-20T14:06:02;39.60;22.02
63976;DHT22;50167;47.958;21.780;2023-05-20T14:08:33;39.82;21.73
63976;DHT22;50167;47.958;21.780;2023-05-20T14:11:02;39.59;21.87
63976;DHT22;50167;47.958;21.780;2023-05-20T14:13:49;39.44;21.88
63976;DHT22;50167;47.958;21.780;2023-05-20T14:16:11;39.62;22.93
63976;DHT22;50167;47.958;21.780;2023-05-20T14:18:40;39.63;22.59
63976;DHT22;50167;47.958;21.780;2023-05-20T14:21:10;39.00;22.40
63976;DHT22;50167;47.958;21.780;2023-05-20T14:23:56;37.87;22.99
63976;DHT22;50167;47.958;21.780;2023-05-20T14:26:20;36.94;24.12
63976;DHT22;50167;47.958;21.780;2023-05-20T14:28:51;36.76;24.61
63976;DHT22;50167;47.958;21.780;2023-05-20T14:31:25;37.10;24.47
63976;DHT22;50167;47.958;21.780;2023-05-20T14:33:52;37.56;23.79
63976;DHT22;50167;47.958;21.780;2023-05-20T14:36:34;38.04;23.63
63976;DHT22;50167;47.958;21.780;2023-05-20T14:39:16;38.45;24.74
63976;DHT22;50167;47.958;21.780;2023-05-20T14:41:46;38.15;25.63
63976;DHT22;50167;47.958;21.780;2023-05-20T14:44:13;37.99;26.28
63976;DHT22;50167;47.958;21.780;2023-05-20T14:46:44;38.18;26.69
63976;DHT22;50167;47.958;21.780;2023-05-20T14:49:17;38.25;26.80
63976;DHT22;50167;47.958;21.780;2023-05-20T14:51:45;37.87;26.81
63976;DHT22;50167;47.958;21.780;2023-05-20T14:54:19;37.31;27.46
63976;DHT22;50167;47.958;21.780;2023-05-20T14:56:48;36.66;27.85
63976;DHT22;50167;47.958;21.780;2023-05-20T14:59:20;35.73;28.88
63976;DHT22;50167;47.958;21.780;2023-05-20T15:01:46;34.83;30.21
63976;DHT22;50167;47.958;21.780;2023-05-20T15:04:18;34.57;30.78
63976;DHT22;50167;47.958;21.780;2023-05-20T15:06:50;34.53;30.75
63976;DHT22;50167;47.958;21.780;2023-05-20T15:09:17;34.37;30.66
63976;DHT22;50167;47.958;21.780;2023-05-20T15:11:45;34.10;31.33
63976;DHT22;50167;47.958;21.780;2023-05-20T15:14:13;33.54;31.04
63976;DHT22;50167;47.958;21.780;2023-05-20T15:16:40;32.85;32.87
63976;DHT22;50167;47.958;21.780;2023-05-20T15:19:11;32.15;33.97
63976;DHT22;50167;47.958;21.780;2023-05-20T15:21:40;31.53;34.60
63976;DHT22;50167;47.958;21.780;2023-05-20T15:24:08;30.97;35.73
63976;DHT22;50167;47.958;21.780;2023-05-20T15:26:37;30.49;36.77
63976;DHT22;50167;47.958;21.780;2023-05-20T15:29:06;30.08;37.11
63976;DHT22;50167;47.958;21.780;2023-05-20T15:31:35;29.71;37.77
63976;DHT22;50167;47.958;21.780;2023-05-20T15:34:01;29.47;39.22
63976;DHT22;50167;47.958;21.780;2023-05-20T15:36:27;29.33;39.63
63976;DHT22;50167;47.958;21.780;2023-05-20T15:38:57;29.14;39.71
63976;DHT22;50167;47.958;21.780;2023-05-20T15:41:24;29.10;40.60
63976;DHT22;50167;47.958;21.780;2023-05-20T15:43:55;29.03;40.13
63976;DHT22;50167;47.958;21.780;2023-05-20T15:46:25;28.83;40.11
63976;DHT22;50167;47.958;21.780;2023-05-20T15:48:55;28.64;40.89
63976;DHT22;50167;47.958;21.780;2023-05-20T15:51:22;28.52;40.33
63976;DHT22;50167;47.958;21.780;2023-05-20T15:53:51;28.30;41.37
63976;DHT22;50167;47.958;21.780;2023-05-20T15:56:19;28.19;41.87
63976;DHT22;50167;47.958;21.780;2023-05-20T15:58:49;28.06;42.24
63976;DHT22;50167;47.958;21.780;2023-05-20T16:01:20;27.89;42.42
63976;DHT22;50167;47.958;21.780;2023-05-20T16:03:48;27.75;42.93
63976;DHT22;50167;47.958;21.780;2023-05-20T16:06:14;27.61;43.37
63976;DHT22;50167;47.958;21.780;2023-05-20T16:08:45;27.45;41.02
63976;DHT22;50167;47.958;21.780;2023-05-20T16:11:12;27.34;40.89